Aérodrome :
LOGIN :

S'inscrire | Disclaimer

   EN    FR    IT 

 










Légende :    VFR   VFR Marginal   IFR   IFR Intensif   IFR Très Intensif
Visi : 
Plafond : 
>= 8 km
>= 3000ft
5 à 8 km
1000 à 3000 ft
1500m à 5 km
500 à 1000 ft
800 à 1500m
200 à 500 ft
< 800m
< 200 ft
Symboles :   Orages  Brouillard  Fortes neiges  Fortes précipitations  Vent > 20 kt
SIGMETs :   Divers  Orages  Givrage  Turbulence  Onde Orograph.  Cendres Volcan.







- Altitude de l'aérodrome : 240 ft
- Code IATA : VLC


LEVC - Valencia Manises

DERNIER METAR :
  • 181430Z 07007KT 020V110 9999 FEW030 28/17 Q1013 NOSIG

METARs EXPIRÉS :
  • 181400Z 10008KT 060V140 9999 FEW030 28/16 Q1013 NOSIG
  • 181330Z 11009KT 080V150 CAVOK 27/16 Q1013 NOSIG
  • 181300Z 10009KT 050V140 CAVOK 26/17 Q1014 NOSIG
  • 181230Z 10009KT 060V140 CAVOK 26/17 Q1014 NOSIG
  • 181200Z 09009KT 030V140 CAVOK 26/16 Q1014 NOSIG

TAF TAF LEVC
Valide du 18 à 12h jusqu'au 19 à 12h UTC


181100Z 1812/1912 11010KT 9999 FEW030 TX30/1812Z TN16/1906Z
BECMG 1817/1819 05006KT
BECMG 1823/1901 28005KT
BECMG 1907/1909 11010KT
Pas de NOTAMs connus pour ce terrain.



MET'MAP, la Météo Aéronautique d'un coup d'oeil ! - Copyright ORBIFLY Décembre 2007 - Disclaimer

ORBIFLY MET'MAP TEAM :

Programmation & Développement : Alexandra Zaïnal
Conception & Développement : Baudouin d'Aumeries
Co-Programmation & Développement : Marc-Olivier Méhu
Soutien technique & logistique : Manuel Goepfert

Contact : metmap@orbifly.com




SOURCES & CREDITS :

   NOAA